Time;durP1;ratioP1;P1;durP2;ratioP2;P2;SDS_P1;SDS_P2;PMS_P1;PMS_P2;Temp;Humidity;BMP_temperature;BMP_pressure;BME280_temperature;BME280_humidity;BME280_pressure;Samples;Min_cycle;Max_cycle;Signal;HPM_P1;HPM_P2
2022/07/29 00:02:10;;;;;;;;;;;;;;;16.36;85.68;101814.97;5053707;28;19947;-52
2022/07/29 00:04:35;;;;;;;;;;;;;;;16.35;86.49;101815.91;5036457;28;19935;-56
2022/07/29 00:07:01;;;;;;;;;;;;;;;16.33;86.40;101804.44;5053535;28;19951;-53
2022/07/29 00:09:26;;;;;;;;;;;;;;;16.31;86.49;101801.00;5054039;28;19966;-54
2022/07/29 00:11:51;;;;;;;;;;;;;;;16.28;87.03;101804.69;5053039;28;19924;-54
2022/07/29 00:14:16;;;;;;;;;;;;;;;16.31;86.67;101798.31;5054055;28;19928;-53
2022/07/29 00:16:42;;;;;;;;;;;;;;;16.26;86.64;101793.22;5053705;28;19923;-52
2022/07/29 00:19:07;;;;;;;;;;;;;;;16.21;87.56;101790.81;5053828;28;19963;-51
2022/07/29 00:21:32;;;;;;;;;;;;;;;16.19;87.85;101787.34;5052274;28;19967;-53
2022/07/29 00:23:57;;;;;;;;;;;;;;;16.19;88.35;101794.50;5053112;28;19921;-49
2022/07/29 00:26:23;;;;;;;;;;;;;;;16.17;88.04;101791.88;5053816;28;19924;-53
2022/07/29 00:28:48;;;;;;;;;;;;;;;16.15;87.84;101792.91;5052909;28;19966;-55
2022/07/29 00:31:13;;;;;;;;;;;;;;;16.10;88.31;101785.16;5053425;28;19928;-56
2022/07/29 00:33:38;;;;;;;;;;;;;;;16.07;89.31;101787.97;5053285;28;20368;-56
2022/07/29 00:36:04;;;;;;;;;;;;;;;16.06;89.61;101783.56;5053809;28;19970;-55
2022/07/29 00:38:29;;;;;;;;;;;;;;;16.03;89.04;101784.59;5052808;28;20332;-55
2022/07/29 00:40:54;;;;;;;;;;;;;;;15.97;89.88;101784.06;5053292;28;19917;-55
2022/07/29 00:43:20;;;;;;;;;;;;;;;15.98;89.71;101781.31;5052987;28;19996;-56
2022/07/29 00:45:45;;;;;;;;;;;;;;;15.98;90.03;101783.97;5053279;28;19948;-56
2022/07/29 00:48:10;;;;;;;;;;;;;;;15.99;89.80;101780.38;5052729;28;19912;-55
2022/07/29 00:50:36;;;;;;;;;;;;;;;15.97;90.27;101782.28;5053213;28;20014;-55
2022/07/29 00:53:02;;;;;;;;;;;;;;;15.95;90.59;101770.81;5035052;28;19921;-56
2022/07/29 00:55:28;;;;;;;;;;;;;;;15.93;90.95;101770.00;5051650;28;19924;-56
2022/07/29 00:57:54;;;;;;;;;;;;;;;15.88;91.41;101775.59;5052156;28;19925;-56
2022/07/29 01:00:22;;;;;;;;;;;;;;;15.91;91.64;101776.38;5034472;28;20023;-56
2022/07/29 01:02:50;;;;;;;;;;;;;;;15.86;91.75;101773.97;5052685;28;19925;-55
2022/07/29 01:05:19;;;;;;;;;;;;;;;15.85;92.18;101769.56;5052600;28;19932;-56
2022/07/29 01:07:45;;;;;;;;;;;;;;;15.82;92.47;101770.59;5052865;28;19917;-54
2022/07/29 01:10:12;;;;;;;;;;;;;;;15.82;92.69;101761.69;5052571;28;19975;-55
2022/07/29 01:12:38;;;;;;;;;;;;;;;15.80;93.12;101764.41;5052687;28;20008;-55
2022/07/29 01:15:05;;;;;;;;;;;;;;;15.81;92.78;101770.63;5034494;28;19971;-56
2022/07/29 01:17:50;;;;;;;;;;;;;;;15.78;93.24;101760.97;5052723;28;19913;-56
2022/07/29 01:20:31;;;;;;;;;;;;;;;15.78;93.17;101757.44;5033836;28;19917;-55
2022/07/29 01:22:59;;;;;;;;;;;;;;;15.75;93.57;101755.78;5052351;28;19913;-56
2022/07/29 01:25:43;;;;;;;;;;;;;;;15.72;93.85;101755.94;5035672;28;19928;-56
2022/07/29 01:28:14;;;;;;;;;;;;;;;15.71;94.09;101755.06;5052847;28;19912;-57
2022/07/29 01:30:41;;;;;;;;;;;;;;;15.71;93.92;101759.56;5052206;28;19998;-56
2022/07/29 01:33:10;;;;;;;;;;;;;;;15.67;94.16;101752.66;5052329;28;19920;-55
2022/07/29 01:35:38;;;;;;;;;;;;;;;15.65;94.83;101750.06;5052169;28;19947;-54
2022/07/29 01:38:09;;;;;;;;;;;;;;;15.65;95.16;101757.19;5034497;28;19936;-56
2022/07/29 01:40:34;;;;;;;;;;;;;;;15.64;95.28;101753.69;5034152;28;19920;-54
2022/07/29 01:43:03;;;;;;;;;;;;;;;15.59;95.27;101747.72;5052271;28;19920;-55
2022/07/29 01:45:43;;;;;;;;;;;;;;;15.55;95.19;101752.34;5052295;28;19912;-56
2022/07/29 01:48:16;;;;;;;;;;;;;;;15.54;96.06;101758.63;5034087;28;19921;-55
2022/07/29 01:50:58;;;;;;;;;;;;;;;15.54;95.92;101747.94;5051510;28;19952;-56
2022/07/29 01:53:33;;;;;;;;;;;;;;;15.50;95.80;101749.03;5051607;28;19928;-56
2022/07/29 01:55:59;;;;;;;;;;;;;;;15.50;96.02;101741.03;5034096;28;19916;-53
2022/07/29 01:58:26;;;;;;;;;;;;;;;15.49;96.19;101733.97;5051566;28;19921;-54
2022/07/29 02:00:52;;;;;;;;;;;;;;;15.46;96.20;101734.13;5051510;28;20019;-55
2022/07/29 02:03:18;;;;;;;;;;;;;;;15.44;96.88;101741.34;5052004;28;19960;-56
2022/07/29 02:05:47;;;;;;;;;;;;;;;15.44;96.88;101741.34;5051319;28;21551;-57
2022/07/29 02:08:13;;;;;;;;;;;;;;;15.45;96.64;101731.53;5051361;28;19917;-56
2022/07/29 02:10:40;;;;;;;;;;;;;;;15.43;96.82;101720.94;5059049;28;19913;-55
2022/07/29 02:13:07;;;;;;;;;;;;;;;15.44;96.81;101725.34;5058344;28;19921;-55
2022/07/29 02:15:34;;;;;;;;;;;;;;;15.44;96.68;101725.34;5058661;28;19912;-55
2022/07/29 02:18:05;;;;;;;;;;;;;;;15.45;96.62;101727.06;5058297;28;19921;-56
2022/07/29 02:20:31;;;;;;;;;;;;;;;15.44;96.60;101729.81;5058203;28;19917;-56
2022/07/29 02:22:58;;;;;;;;;;;;;;;15.42;96.45;101729.88;5057796;28;20330;-55
2022/07/29 02:25:24;;;;;;;;;;;;;;;15.41;96.64;101730.84;5040566;28;19948;-54
2022/07/29 02:27:50;;;;;;;;;;;;;;;15.39;96.66;101722.03;5040431;28;19944;-55
2022/07/29 02:30:15;;;;;;;;;;;;;;;15.38;96.79;101725.63;5058203;28;19969;-54
2022/07/29 02:32:41;;;;;;;;;;;;;;;15.34;97.19;101726.75;5058058;28;20334;-55
2022/07/29 02:35:07;;;;;;;;;;;;;;;15.34;97.35;101724.94;5058441;28;19924;-56
2022/07/29 02:37:33;;;;;;;;;;;;;;;15.36;97.10;101725.72;5058459;28;19920;-54
2022/07/29 02:39:59;;;;;;;;;;;;;;;15.34;96.95;101724.06;5057587;28;20215;-55
2022/07/29 02:42:26;;;;;;;;;;;;;;;15.31;97.17;101725.09;5057905;28;19967;-56
2022/07/29 02:44:51;;;;;;;;;;;;;;;15.30;96.92;101726.03;5058472;28;19919;-56
2022/07/29 02:47:20;;;;;;;;;;;;;;;15.29;97.31;101728.78;5058463;28;19916;-56
2022/07/29 02:49:53;;;;;;;;;;;;;;;15.27;97.05;101725.31;5057819;28;20010;-53
2022/07/29 02:52:37;;;;;;;;;;;;;;;15.27;97.24;101723.53;5040031;28;19923;-54
2022/07/29 02:55:18;;;;;;;;;;;;;;;15.24;97.38;101724.56;5055897;28;19948;-55
2022/07/29 02:57:46;;;;;;;;;;;;;;;15.20;97.42;101714.94;5058239;28;19960;-56
2022/07/29 03:00:12;;;;;;;;;;;;;;;15.18;97.36;101719.53;5057544;28;19920;-57
2022/07/29 03:02:38;;;;;;;;;;;;;;;15.18;97.63;101716.84;5057669;28;19962;-55
2022/07/29 03:05:04;;;;;;;;;;;;;;;15.15;97.79;101716.97;5057901;28;19924;-57
2022/07/29 03:07:30;;;;;;;;;;;;;;;15.12;98.51;101713.63;5040178;28;19916;-55
2022/07/29 03:09:56;;;;;;;;;;;;;;;15.13;98.19;101707.34;5057674;28;19912;-57
2022/07/29 03:12:22;;;;;;;;;;;;;;;15.12;98.22;101705.63;5057949;28;19939;-54
2022/07/29 03:14:48;;;;;;;;;;;;;;;15.07;98.26;101712.03;5057869;28;20014;-55
2022/07/29 03:17:14;;;;;;;;;;;;;;;15.03;98.51;101707.81;5058038;28;19921;-56
2022/07/29 03:19:39;;;;;;;;;;;;;;;15.04;98.62;101708.69;5057205;28;20035;-55
2022/07/29 03:22:05;;;;;;;;;;;;;;;15.03;98.76;101713.13;5016238;28;19921;-55
2022/07/29 03:24:32;;;;;;;;;;;;;;;15.00;98.88;101710.63;5043916;28;19924;-51
2022/07/29 03:26:57;;;;;;;;;;;;;;;14.99;99.05;101716.91;5054777;28;20372;-56
2022/07/29 03:29:23;;;;;;;;;;;;;;;14.97;99.41;101710.78;5054364;28;19917;-55
2022/07/29 03:31:48;;;;;;;;;;;;;;;14.95;99.55;101707.34;5053027;28;19920;-54
2022/07/29 03:34:13;;;;;;;;;;;;;;;14.94;99.80;101705.59;5053834;28;19932;-54
2022/07/29 03:36:39;;;;;;;;;;;;;;;14.91;99.72;101709.28;5037029;28;19928;-56
2022/07/29 03:39:05;;;;;;;;;;;;;;;14.91;99.59;101705.72;5054622;28;19960;-54
2022/07/29 03:41:31;;;;;;;;;;;;;;;14.86;100.00;101708.66;5054561;28;19912;-56
2022/07/29 03:43:58;;;;;;;;;;;;;;;14.86;99.85;101705.09;5036209;28;19916;-56
2022/07/29 03:46:23;;;;;;;;;;;;;;;14.85;100.00;101700.72;5054386;28;20438;-57
2022/07/29 03:48:50;;;;;;;;;;;;;;;14.85;100.00;101708.72;5036669;28;19912;-54
2022/07/29 03:51:15;;;;;;;;;;;;;;;14.86;100.00;101713.97;5054165;28;19939;-57
2022/07/29 03:53:41;;;;;;;;;;;;;;;14.87;100.00;101710.38;5053559;28;20377;-56
2022/07/29 03:56:08;;;;;;;;;;;;;;;14.86;100.00;101707.75;5054513;28;19919;-57
2022/07/29 03:58:34;;;;;;;;;;;;;;;14.84;100.00;101709.66;5054476;28;19916;-53
2022/07/29 04:00:59;;;;;;;;;;;;;;;14.83;100.00;101707.94;5053796;28;19931;-56
2022/07/29 04:03:25;;;;;;;;;;;;;;;14.83;100.00;101710.59;5053563;28;20367;-53
2022/07/29 04:05:59;;;;;;;;;;;;;;;14.82;100.00;101708.84;5034383;28;19975;-55
2022/07/29 04:08:24;;;;;;;;;;;;;;;14.84;100.00;101701.66;5034105;28;20304;-55
2022/07/29 04:10:51;;;;;;;;;;;;;;;14.81;100.00;101705.34;5038407;28;19916;-55
2022/07/29 04:13:17;;;;;;;;;;;;;;;14.79;100.00;101706.34;5053734;28;19921;-54
2022/07/29 04:15:42;;;;;;;;;;;;;;;14.79;100.00;101703.69;5053492;28;19928;-55
2022/07/29 04:18:07;;;;;;;;;;;;;;;14.81;100.00;101715.13;5054088;28;19920;-54
2022/07/29 04:20:32;;;;;;;;;;;;;;;14.83;100.00;101705.25;5053851;28;19913;-55
2022/07/29 04:22:57;;;;;;;;;;;;;;;14.84;100.00;101705.19;5053399;28;20415;-56
2022/07/29 04:25:23;;;;;;;;;;;;;;;14.87;100.00;101706.81;5053309;28;20377;-54
2022/07/29 04:28:00;;;;;;;;;;;;;;;14.87;100.00;101705.03;5053654;28;19912;-54
2022/07/29 04:30:25;;;;;;;;;;;;;;;14.90;99.78;101704.88;5037611;28;19916;-55
2022/07/29 04:32:51;;;;;;;;;;;;;;;14.91;99.70;101705.72;5035029;28;19959;-56
2022/07/29 04:35:16;;;;;;;;;;;;;;;14.90;99.78;101702.22;5053079;28;20410;-56
2022/07/29 04:37:42;;;;;;;;;;;;;;;14.94;99.82;101697.59;5035695;28;19921;-57
2022/07/29 04:40:07;;;;;;;;;;;;;;;14.96;99.24;101701.06;5053671;28;19983;-55
2022/07/29 04:42:32;;;;;;;;;;;;;;;14.96;99.69;101702.84;5035176;28;19921;-55
2022/07/29 04:44:57;;;;;;;;;;;;;;;14.96;99.54;101697.50;5018218;28;19917;-56
2022/07/29 04:47:23;;;;;;;;;;;;;;;14.98;99.20;101703.66;5053331;28;19928;-54
2022/07/29 04:49:48;;;;;;;;;;;;;;;14.99;98.98;101708.06;5035414;28;20368;-56
2022/07/29 04:52:13;;;;;;;;;;;;;;;14.98;98.79;101704.50;5035471;28;19927;-56
2022/07/29 04:54:38;;;;;;;;;;;;;;;14.97;99.19;101693.91;5052798;28;20281;-55
2022/07/29 04:57:04;;;;;;;;;;;;;;;14.97;99.56;101704.59;5051681;28;20284;-57
2022/07/29 04:59:29;;;;;;;;;;;;;;;14.97;99.42;101702.75;5052560;28;20296;-55
2022/07/29 05:01:54;;;;;;;;;;;;;;;15.02;99.27;101699.88;5031746;28;19920;-54
2022/07/29 05:04:19;;;;;;;;;;;;;;;15.04;98.57;101703.34;5032455;28;20288;-51
2022/07/29 05:06:44;;;;;;;;;;;;;;;15.06;98.29;101705.00;5032685;28;20285;-52
2022/07/29 05:09:10;;;;;;;;;;;;;;;15.07;98.49;101709.38;5031296;28;19975;-54
2022/07/29 05:11:35;;;;;;;;;;;;;;;15.09;98.60;101709.31;5033080;28;19971;-52
2022/07/29 05:14:00;;;;;;;;;;;;;;;15.13;98.58;101715.34;5032372;28;19929;-51
2022/07/29 05:16:25;;;;;;;;;;;;;;;15.07;97.98;101709.38;5032038;28;19917;-51
2022/07/29 05:18:50;;;;;;;;;;;;;;;15.07;98.98;101706.69;5032596;28;19923;-54
2022/07/29 05:21:16;;;;;;;;;;;;;;;15.08;99.22;101711.09;5032879;28;19918;-51
2022/07/29 05:23:41;;;;;;;;;;;;;;;15.12;99.25;101708.28;5032661;28;19917;-50
2022/07/29 05:26:06;;;;;;;;;;;;;;;15.16;99.33;101704.53;5032430;28;19928;-52
2022/07/29 05:28:35;;;;;;;;;;;;;;;15.20;98.81;101709.63;5032412;28;19927;-55
2022/07/29 05:31:00;;;;;;;;;;;;;;;15.28;98.93;101721.72;5030853;28;19958;-55
2022/07/29 05:33:25;;;;;;;;;;;;;;;15.42;98.56;101721.88;5031448;28;20436;-54
2022/07/29 05:35:51;;;;;;;;;;;;;;;15.58;97.53;101724.63;5032044;28;19928;-47
2022/07/29 05:38:16;;;;;;;;;;;;;;;15.81;96.13;101728.78;5020059;28;19922;-54
2022/07/29 05:40:41;;;;;;;;;;;;;;;16.02;93.02;101728.59;5028617;28;20408;-56
2022/07/29 05:43:06;;;;;;;;;;;;;;;16.26;91.43;101728.22;5030818;28;20292;-57
2022/07/29 05:45:32;;;;;;;;;;;;;;;16.43;90.11;101729.94;5030384;28;19928;-56
2022/07/29 05:47:57;;;;;;;;;;;;;;;16.58;88.92;101728.25;5031970;28;20002;-54
2022/07/29 05:50:22;;;;;;;;;;;;;;;16.73;88.57;101729.16;5032128;28;19919;-56
2022/07/29 05:52:47;;;;;;;;;;;;;;;16.79;87.76;101727.03;5032126;28;19928;-56
2022/07/29 05:55:13;;;;;;;;;;;;;;;16.99;86.13;101733.06;5032143;28;20012;-56
2022/07/29 05:57:38;;;;;;;;;;;;;;;17.15;86.09;101738.41;5030392;28;20373;-57
2022/07/29 06:00:03;;;;;;;;;;;;;;;17.34;84.14;101739.06;5031001;28;19921;-57
2022/07/29 06:02:29;;;;;;;;;;;;;;;17.45;82.97;101732.19;5044982;28;20289;-57
2022/07/29 06:04:54;;;;;;;;;;;;;;;17.39;81.87;101729.88;5051932;28;19920;-54
2022/07/29 06:07:19;;;;;;;;;;;;;;;17.42;82.28;101721.69;5051511;28;20380;-56
2022/07/29 06:09:44;;;;;;;;;;;;;;;17.51;82.65;101726.47;5051785;28;20299;-57
2022/07/29 06:12:10;;;;;;;;;;;;;;;17.70;81.95;101734.25;5051971;28;19917;-57
2022/07/29 06:14:35;;;;;;;;;;;;;;;17.76;81.71;101733.00;5034157;28;19921;-57
2022/07/29 06:17:01;;;;;;;;;;;;;;;17.97;80.08;101730.88;5050108;28;19927;-58
2022/07/29 06:19:26;;;;;;;;;;;;;;;18.12;78.19;101734.41;5049230;28;19981;-57
2022/07/29 06:21:51;;;;;;;;;;;;;;;18.12;77.04;101726.34;5047455;28;20291;-57
2022/07/29 06:24:16;;;;;;;;;;;;;;;18.15;79.61;101742.25;5050957;28;19939;-55
2022/07/29 06:26:42;;;;;;;;;;;;;;;18.17;79.00;101737.66;5030734;28;19928;-58
2022/07/29 06:29:08;;;;;;;;;;;;;;;18.28;78.39;101737.00;5032780;28;20406;-57
2022/07/29 06:31:33;;;;;;;;;;;;;;;18.39;76.86;101733.63;5050359;28;19920;-56
2022/07/29 06:33:59;;;;;;;;;;;;;;;18.29;76.83;101736.03;5050812;28;20263;-55
2022/07/29 06:36:24;;;;;;;;;;;;;;;18.24;78.82;101740.84;5050475;28;19921;-55
2022/07/29 06:38:49;;;;;;;;;;;;;;;18.34;78.69;101736.59;5033736;28;19959;-56
2022/07/29 06:41:15;;;;;;;;;;;;;;;18.49;77.82;101743.66;5051661;28;20386;-57
2022/07/29 06:43:41;;;;;;;;;;;;;;;18.44;78.93;101743.09;5050224;28;19928;-56
2022/07/29 06:46:09;;;;;;;;;;;;;;;18.40;77.21;101751.44;5050506;28;19920;-55
2022/07/29 06:48:35;;;;;;;;;;;;;;;18.34;77.77;101748.19;5033290;28;20372;-56
2022/07/29 06:51:01;;;;;;;;;;;;;;;18.47;77.55;101745.56;5050764;28;19916;-56
2022/07/29 06:53:27;;;;;;;;;;;;;;;18.66;77.80;101757.81;5031465;28;19928;-56
2022/07/29 06:55:52;;;;;;;;;;;;;;;18.76;75.62;101750.00;5052093;28;20376;-56
2022/07/29 06:58:20;;;;;;;;;;;;;;;18.82;74.64;101757.66;5053033;28;19955;-54
2022/07/29 07:00:45;;;;;;;;;;;;;;;18.94;73.98;101758.72;5032195;28;19921;-57
2022/07/29 07:03:11;;;;;;;;;;;;;;;18.93;73.28;101752.50;5053272;28;19974;-57
2022/07/29 07:05:36;;;;;;;;;;;;;;;18.98;74.94;101766.47;5054160;28;19917;-55
2022/07/29 07:08:01;;;;;;;;;;;;;;;19.06;73.07;101765.13;5054633;28;19925;-56
2022/07/29 07:10:27;;;;;;;;;;;;;;;19.14;73.73;101755.59;5054523;28;19920;-56
2022/07/29 07:12:52;;;;;;;;;;;;;;;19.24;74.04;101763.03;5054771;28;19920;-56
2022/07/29 07:15:21;;;;;;;;;;;;;;;19.31;73.16;101754.47;5054106;28;19916;-56
2022/07/29 07:17:46;;;;;;;;;;;;;;;19.38;72.87;101760.28;5054735;28;19912;-56
2022/07/29 07:20:12;;;;;;;;;;;;;;;19.42;73.06;101763.63;5054586;28;19917;-56
2022/07/29 07:22:37;;;;;;;;;;;;;;;19.39;72.91;101762.00;5054360;28;19912;-56
2022/07/29 07:25:02;;;;;;;;;;;;;;;19.40;71.78;101762.84;5053093;28;20295;-55
2022/07/29 07:27:28;;;;;;;;;;;;;;;19.34;74.15;101761.44;5035843;28;20410;-56
2022/07/29 07:29:53;;;;;;;;;;;;;;;19.25;72.95;101770.97;5053220;28;19916;-55
2022/07/29 07:32:19;;;;;;;;;;;;;;;19.10;74.24;101772.84;5054314;28;20391;-56
2022/07/29 07:34:44;;;;;;;;;;;;;;;18.93;73.66;101779.34;5052949;28;20439;-56
2022/07/29 07:37:09;;;;;;;;;;;;;;;18.86;75.45;101767.25;5049518;28;19921;-57
2022/07/29 07:39:35;;;;;;;;;;;;;;;18.94;74.36;101769.44;5054447;28;19927;-56
2022/07/29 07:42:01;;;;;;;;;;;;;;;18.82;75.66;101768.41;5051927;28;19916;-56
2022/07/29 07:44:26;;;;;;;;;;;;;;;18.77;75.60;101766.03;5053801;28;20000;-55
2022/07/29 07:46:52;;;;;;;;;;;;;;;18.83;75.53;101776.34;5053759;28;19966;-54
2022/07/29 07:49:17;;;;;;;;;;;;;;;18.81;76.12;101772.03;5054196;28;19917;-56
2022/07/29 07:51:42;;;;;;;;;;;;;;;18.99;75.58;101775.41;5052787;28;19916;-56
2022/07/29 07:54:07;;;;;;;;;;;;;;;18.96;75.61;101779.16;5034338;28;19925;-57
2022/07/29 07:56:33;;;;;;;;;;;;;;;19.19;74.24;101778.59;5053366;28;20023;-54
2022/07/29 07:58:58;;;;;;;;;;;;;;;19.23;74.45;101778.25;5031542;28;20396;-57
2022/07/29 08:01:23;;;;;;;;;;;;;;;19.54;73.61;101775.34;5053570;28;19928;-54
2022/07/29 08:03:49;;;;;;;;;;;;;;;19.84;74.11;101772.41;5053781;28;19917;-54
2022/07/29 08:06:14;;;;;;;;;;;;;;;19.90;73.14;101774.69;5051751;28;20274;-55
2022/07/29 08:08:39;;;;;;;;;;;;;;;19.98;71.85;101764.22;5053771;28;19917;-55
2022/07/29 08:11:06;;;;;;;;;;;;;;;20.03;71.66;101765.75;5053829;28;19917;-56
2022/07/29 08:13:31;;;;;;;;;;;;;;;20.13;71.03;101767.69;5054184;28;19960;-55
2022/07/29 08:16:01;;;;;;;;;;;;;;;20.24;71.22;101763.38;5053185;28;20005;-56
2022/07/29 08:18:27;;;;;;;;;;;;;;;20.52;69.12;101775.69;5034865;28;20019;-55
2022/07/29 08:20:52;;;;;;;;;;;;;;;20.51;69.29;101762.34;5053050;28;19917;-56
2022/07/29 08:23:18;;;;;;;;;;;;;;;20.27;70.16;101763.16;5052877;28;20410;-53
2022/07/29 08:25:44;;;;;;;;;;;;;;;20.51;70.60;101765.03;5044132;28;19927;-52
2022/07/29 08:28:09;;;;;;;;;;;;;;;20.48;70.24;101766.13;5044225;28;19921;-51
2022/07/29 08:30:34;;;;;;;;;;;;;;;20.66;69.12;101763.94;5034269;28;20326;-53
2022/07/29 08:33:00;;;;;;;;;;;;;;;20.81;70.41;101764.69;5016838;28;19994;-55
2022/07/29 08:35:25;;;;;;;;;;;;;;;21.24;66.99;101771.38;5052569;28;19925;-58
2022/07/29 08:37:51;;;;;;;;;;;;;;;21.24;69.19;101763.28;5052791;28;19913;-58
2022/07/29 08:40:16;;;;;;;;;;;;;;;21.49;67.98;101769.53;5034557;28;20368;-57
2022/07/29 08:42:41;;;;;;;;;;;;;;;21.79;66.43;101770.84;5052289;28;19939;-57
2022/07/29 08:45:07;;;;;;;;;;;;;;;21.53;67.63;101774.53;5051301;28;20372;-56
2022/07/29 08:47:32;;;;;;;;;;;;;;;21.51;68.63;101778.31;5051928;28;20265;-58
2022/07/29 08:49:58;;;;;;;;;;;;;;;21.62;68.15;101780.25;5052989;28;19913;-58
2022/07/29 08:52:25;;;;;;;;;;;;;;;21.66;67.83;101779.03;5052089;28;19917;-57
2022/07/29 08:54:51;;;;;;;;;;;;;;;21.64;66.65;101776.47;5041919;28;19959;-56
2022/07/29 08:57:17;;;;;;;;;;;;;;;21.48;66.64;101776.72;5047116;28;20274;-57
2022/07/29 08:59:45;;;;;;;;;;;;;;;21.41;65.01;101786.28;5051665;28;19913;-58
2022/07/29 09:02:15;;;;;;;;;;;;;;;21.44;64.08;101781.53;5047004;28;19960;-57
2022/07/29 09:04:41;;;;;;;;;;;;;;;22.01;63.06;101784.38;5030598;28;19927;-57
2022/07/29 09:07:06;;;;;;;;;;;;;;;22.39;61.37;101777.81;5046196;28;19921;-57
2022/07/29 09:09:32;;;;;;;;;;;;;;;23.05;59.63;101767.97;5042798;28;20021;-57
2022/07/29 09:11:58;;;;;;;;;;;;;;;23.74;57.52;101774.81;5033172;28;19935;-57
2022/07/29 09:14:23;;;;;;;;;;;;;;;23.56;55.70;101774.53;5050184;28;20355;-57
2022/07/29 09:16:50;;;;;;;;;;;;;;;23.82;55.08;101774.97;5052366;28;20557;-56
2022/07/29 09:19:23;;;;;;;;;;;;;;;23.78;55.85;101770.84;5048869;28;19994;-57
2022/07/29 09:21:58;;;;;;;;;;;;;;;23.77;57.86;101766.41;5044962;28;19917;-57
2022/07/29 09:24:24;;;;;;;;;;;;;;;23.44;56.40;101771.06;5044232;28;19913;-60
2022/07/29 09:26:49;;;;;;;;;;;;;;;23.19;58.67;101772.25;5051864;28;19920;-58
2022/07/29 09:29:24;;;;;;;;;;;;;;;23.77;56.98;101765.56;5051529;28;19932;-58
2022/07/29 09:31:51;;;;;;;;;;;;;;;25.22;54.22;101765.34;5051977;28;19913;-57
2022/07/29 09:34:20;;;;;;;;;;;;;;;25.99;47.59;101769.00;5052040;28;20016;-57
2022/07/29 09:36:48;;;;;;;;;;;;;;;26.25;47.78;101765.63;5033361;28;20225;-59
2022/07/29 09:39:14;;;;;;;;;;;;;;;26.87;44.41;101767.75;5051456;28;20280;-57
2022/07/29 09:41:49;;;;;;;;;;;;;;;27.04;45.28;101761.47;5051666;28;19924;-57
2022/07/29 09:44:15;;;;;;;;;;;;;;;27.70;42.54;101766.63;5051348;28;20125;-56
2022/07/29 09:46:52;;;;;;;;;;;;;;;27.54;42.83;101762.78;5050863;28;19921;-56
2022/07/29 09:49:17;;;;;;;;;;;;;;;27.68;42.44;101763.22;5043900;28;19917;-57
2022/07/29 09:51:42;;;;;;;;;;;;;;;28.31;41.63;101758.50;5033326;28;19928;-57
2022/07/29 09:54:37;;;;;;;;;;;;;;;28.55;41.04;101761.31;5050820;28;19928;-56
2022/07/29 09:57:06;;;;;;;;;;;;;;;28.74;39.94;101765.66;5032328;28;19927;-57
2022/07/29 09:59:31;;;;;;;;;;;;;;;28.39;41.43;101772.13;5032494;28;19917;-58
2022/07/29 10:01:56;;;;;;;;;;;;;;;29.02;39.25;101768.09;5045397;28;19921;-58
2022/07/29 10:04:22;;;;;;;;;;;;;;;29.05;40.20;101766.91;5047491;28;19928;-58
2022/07/29 10:07:00;;;;;;;;;;;;;;;29.33;40.50;101769.34;5046093;28;19923;-58
2022/07/29 10:09:25;;;;;;;;;;;;;;;28.56;40.69;101765.75;5051856;28;20004;-58
2022/07/29 10:12:03;;;;;;;;;;;;;;;28.41;39.66;101765.50;5050318;28;20007;-58
2022/07/29 10:14:29;;;;;;;;;;;;;;;27.92;42.43;101759.81;5047525;28;19925;-58
2022/07/29 10:16:54;;;;;;;;;;;;;;;27.84;40.39;101770.63;5051567;28;19916;-57
2022/07/29 10:19:20;;;;;;;;;;;;;;;27.35;45.30;101762.94;5050938;28;19927;-58
2022/07/29 10:21:45;;;;;;;;;;;;;;;27.65;44.33;101764.41;5050756;28;20376;-58
2022/07/29 10:24:10;;;;;;;;;;;;;;;27.98;44.34;101752.84;5032633;28;19928;-58
2022/07/29 10:26:36;;;;;;;;;;;;;;;28.44;42.53;101748.84;5048311;28;20261;-58
2022/07/29 10:29:02;;;;;;;;;;;;;;;28.38;43.64;101757.69;5049482;28;20418;-57
2022/07/29 10:31:40;;;;;;;;;;;;;;;29.08;41.45;101755.66;5054305;28;19925;-58
2022/07/29 10:34:14;;;;;;;;;;;;;;;28.53;40.83;101757.03;5054728;28;19983;-56
2022/07/29 10:36:45;;;;;;;;;;;;;;;28.68;40.97;101760.84;5052723;28;19917;-58
2022/07/29 10:39:20;;;;;;;;;;;;;;;28.44;41.21;101759.75;5044563;28;19921;-58
2022/07/29 10:41:51;;;;;;;;;;;;;;;29.02;40.71;101759.91;5050420;28;19925;-58
2022/07/29 10:44:24;;;;;;;;;;;;;;;28.78;42.09;101750.66;5036562;28;19920;-58
2022/07/29 10:46:50;;;;;;;;;;;;;;;28.85;41.03;101755.44;5048012;28;19967;-58
2022/07/29 10:49:15;;;;;;;;;;;;;;;29.15;38.57;101758.56;5054381;28;19925;-58
2022/07/29 10:51:50;;;;;;;;;;;;;;;28.91;37.87;101755.66;5063113;28;20006;-57
2022/07/29 10:54:15;;;;;;;;;;;;;;;28.64;38.01;101758.63;5037352;28;19923;-58
2022/07/29 10:56:41;;;;;;;;;;;;;;;28.34;38.62;101756.31;5054702;28;20041;-59
2022/07/29 10:59:23;;;;;;;;;;;;;;;28.30;38.40;101752.22;5036678;28;20399;-58
2022/07/29 11:01:50;;;;;;;;;;;;;;;28.81;36.84;101752.19;5036616;28;19921;-58
2022/07/29 11:04:16;;;;;;;;;;;;;;;28.92;36.24;101761.94;5054988;28;19969;-58
2022/07/29 11:06:59;;;;;;;;;;;;;;;29.69;35.29;101760.78;5052578;28;20345;-58
2022/07/29 11:09:25;;;;;;;;;;;;;;;29.53;34.83;101748.88;5050876;28;19916;-58
2022/07/29 11:11:50;;;;;;;;;;;;;;;29.74;34.84;101747.47;5054582;28;19928;-58
2022/07/29 11:14:17;;;;;;;;;;;;;;;30.06;34.48;101751.16;5053923;28;19920;-58
2022/07/29 11:17:00;;;;;;;;;;;;;;;30.10;33.50;101755.25;5054618;28;19921;-58
2022/07/29 11:19:25;;;;;;;;;;;;;;;30.30;32.79;101743.91;5050233;28;20395;-58
2022/07/29 11:21:51;;;;;;;;;;;;;;;30.27;32.77;101747.84;5054140;28;19928;-58
2022/07/29 11:24:17;;;;;;;;;;;;;;;29.88;34.38;101744.03;5036420;28;19991;-58
2022/07/29 11:26:43;;;;;;;;;;;;;;;29.77;33.86;101749.00;5054430;28;19920;-58
2022/07/29 11:29:16;;;;;;;;;;;;;;;29.82;34.69;101736.50;5052863;28;19920;-58
2022/07/29 11:31:48;;;;;;;;;;;;;;;30.49;33.58;101738.03;5046642;28;19917;-58
2022/07/29 11:34:22;;;;;;;;;;;;;;;31.01;31.61;101735.63;5048635;28;19925;-58
2022/07/29 11:37:06;;;;;;;;;;;;;;;29.95;32.14;101748.81;5046688;28;19913;-58
2022/07/29 11:39:31;;;;;;;;;;;;;;;29.50;32.83;101745.63;5042000;28;19920;-59
2022/07/29 11:42:15;;;;;;;;;;;;;;;29.15;33.10;101743.06;5027477;28;19921;-58
2022/07/29 11:44:53;;;;;;;;;;;;;;;29.67;32.43;101739.13;5051777;28;19917;-58
2022/07/29 11:47:19;;;;;;;;;;;;;;;29.43;32.20;101742.75;5034208;28;19913;-58
2022/07/29 11:49:45;;;;;;;;;;;;;;;28.89;31.81;101744.06;5035536;28;20371;-59
2022/07/29 11:52:10;;;;;;;;;;;;;;;29.38;34.68;101739.69;5051753;28;19972;-59
2022/07/29 11:54:39;;;;;;;;;;;;;;;30.03;32.78;101748.78;5052546;28;20376;-59
2022/07/29 11:57:06;;;;;;;;;;;;;;;30.02;31.14;101745.19;5036302;28;19921;-59
2022/07/29 11:59:38;;;;;;;;;;;;;;;29.14;31.29;101745.94;5053212;28;19916;-58
2022/07/29 12:02:03;;;;;;;;;;;;;;;29.71;30.36;101743.22;5054275;28;19920;-58
2022/07/29 12:04:29;;;;;;;;;;;;;;;30.03;30.77;101746.06;5053368;28;20086;-58
2022/07/29 12:06:55;;;;;;;;;;;;;;;29.84;30.07;101742.66;5050965;28;19921;-58
2022/07/29 12:09:21;;;;;;;;;;;;;;;29.71;31.94;101745.94;5053178;28;19978;-58
2022/07/29 12:11:47;;;;;;;;;;;;;;;30.70;31.68;101751.03;5049769;28;20394;-58
2022/07/29 12:14:24;;;;;;;;;;;;;;;31.01;31.46;101746.56;5050066;28;19921;-58
2022/07/29 12:16:50;;;;;;;;;;;;;;;30.97;31.05;101743.34;5047581;28;19985;-58
2022/07/29 12:19:15;;;;;;;;;;;;;;;30.58;32.05;101762.56;5030444;28;20459;-59
2022/07/29 12:21:47;;;;;;;;;;;;;;;30.23;34.53;101752.81;5050667;28;19927;-59
2022/07/29 12:24:12;;;;;;;;;;;;;;;30.74;32.99;101748.81;5052626;28;19924;-58
2022/07/29 12:26:48;;;;;;;;;;;;;;;31.58;32.34;101742.53;5052650;28;20296;-58
2022/07/29 12:29:17;;;;;;;;;;;;;;;32.07;30.31;101748.53;5052826;28;19920;-58
2022/07/29 12:31:43;;;;;;;;;;;;;;;31.74;32.90;101740.69;5053445;28;19913;-58
2022/07/29 12:34:09;;;;;;;;;;;;;;;30.67;32.15;101750.59;5053298;28;19924;-58
2022/07/29 12:36:34;;;;;;;;;;;;;;;29.53;34.00;101748.88;5032323;28;19921;-58